Nearby METAR Reports

 

KHCR - Heber/Russ Mcdon, Utah, USA
Distance from station: SSW 18mi, 29km
Updated: Sat, 05-Dec-2020 1:15am MST
Clear
Clear
 Wind from calm
Wind: Calm
Temperature: 10°F , -12°C
Dew Point: 3°F , -16°C
Humidity: 72%
Barometer: 30.44 inHg , 1030.8 hPa
Clouds: Clear
Visibility: 10 miles , 16 km
2020/12/05 08:15 KHCR 050815Z AUTO 00000KT 10SM CLR M12/M16 A3044 RMK AO2
KSLC - Salt Lake City, Utah, USA
Distance from station: W 35mi, 57km
Updated: Sat, 05-Dec-2020 12:54am MST
Clear
Clear
 Wind from calm
Wind: Calm
Temperature: 25°F , -4°C
Dew Point: 16°F , -9°C
Humidity: 69%
Barometer: 30.46 inHg , 1031.5 hPa
Clouds: Clear
Visibility: 10 miles , 16 km
2020/12/05 07:54 KSLC 050754Z 00000KT 10SM CLR M04/M09 A3046 RMK AO2 SLP334 T10441094 $
 
KU42 - Salt Lake Muni, Utah, USA
Distance from station: WSW 37mi, 59km
Updated: Sat, 05-Dec-2020 1:35am MST
Clear
Clear
 Wind from calm
Wind: Calm
Temperature: 23°F , -5°C
Dew Point: 16°F , -9°C
Humidity: 74%
Barometer: 30.46 inHg , 1031.5 hPa
Clouds: Clear
Visibility: 10 miles , 16 km
2020/12/05 08:35 KU42 050835Z AUTO 00000KT 10SM CLR M05/M09 A3046 RMK AO1 T10551092
KEVW - Evanston, Wyoming, USA
Distance from station: NNE 40mi, 64km
Updated: Sat, 05-Dec-2020 12:53am MST
Clear
Clear
 Wind from NNE
Wind: NNE 8 mph , 13 km/h
Temperature: 21°F , -6°C
Wind Chill: 11°F , -12°C
Dew Point: 7°F , -14°C
Humidity: 54%
Barometer: 30.44 inHg , 1030.8 hPa
Clouds: Clear
Visibility: 10 miles , 16 km
2020/12/05 07:53 KEVW 050753Z AUTO 02007KT 10SM CLR M06/M14 A3044 RMK AO2 SLP316 T10611144
 
KPVU - Provo Muni, Utah, USA
Distance from station: SSW 41mi, 67km
Updated: Sat, 05-Dec-2020 12:56am MST
Clear
Clear
 Wind from calm
Wind: Calm
Temperature: 18°F , -8°C
Dew Point: 9°F , -13°C
Humidity: 68%
Barometer: 30.47 inHg , 1031.8 hPa
Clouds: Clear
Visibility: 10 miles , 16 km
2020/12/05 07:56 KPVU 050756Z AUTO 00000KT 10SM CLR M08/M13 A3047 RMK AO2 SLP357 T10831133 FZRANO
KHIF - Hill Afb/Ogden, Utah, USA
Distance from station: NW 45mi, 72km
Updated: Sat, 05-Dec-2020 12:58am MST
Clear
Clear
 Wind from E
Wind: E 3 mph , 6 km/h
Temperature: 27°F , -3°C
Dew Point: 12°F , -11°C
Humidity: 54%
Barometer: 30.45 inHg , 1031.2 hPa
Clouds: Clear
Visibility: 10 miles , 16 km
2020/12/05 07:58 KHIF 050758Z AUTO 10003KT 10SM CLR M03/M11 A3045 RMK AO2 SLP330 T10351108
 
KOGD - Ogden, Utah, USA
Distance from station: NW 50mi, 81km
Updated: Sat, 05-Dec-2020 12:53am MST
Clear
Clear
 Wind from S
Wind: S 5 mph , 7 km/h
Temperature: 25°F , -4°C
Wind Chill: 19°F , -7°C
Dew Point: 10°F , -12°C
Humidity: 54%
Barometer: 30.45 inHg , 1031.2 hPa
Clouds: Clear
Visibility: 10 miles , 16 km
2020/12/05 07:53 KOGD 050753Z AUTO 18004KT 10SM CLR M04/M12 A3045 RMK AO2 SLP329 T10391122